Time;durP1;ratioP1;P1;durP2;ratioP2;P2;SDS_P1;SDS_P2;PMS_P1;PMS_P2;Temp;Humidity;BMP_temperature;BMP_pressure;BME280_temperature;BME280_humidity;BME280_pressure;Samples;Min_cycle;Max_cycle;Signal;HPM_P1;HPM_P2
2022/03/25 00:02:04;;;;;;;38.97;13.52;;;5.40;47.80;;;;;;5094902;28;20062;-79
2022/03/25 00:04:30;;;;;;;30.17;12.90;;;5.30;47.80;;;;;;5095140;28;20103;-78
2022/03/25 00:06:56;;;;;;;33.08;13.95;;;5.30;47.80;;;;;;5095254;28;20110;-76
2022/03/25 00:09:22;;;;;;;27.95;12.90;;;5.30;48.10;;;;;;5076293;28;20028;-78
2022/03/25 00:11:47;;;;;;;35.55;13.70;;;5.20;48.30;;;;;;5095008;28;20024;-78
2022/03/25 00:14:14;;;;;;;27.50;12.77;;;5.20;48.40;;;;;;5075783;28;20377;-78
2022/03/25 00:16:42;;;;;;;29.63;14.38;;;5.20;48.50;;;;;;5076057;28;20059;-78
2022/03/25 00:19:08;;;;;;;31.40;12.90;;;5.20;48.60;;;;;;5094569;28;20028;-78
2022/03/25 00:21:35;;;;;;;27.30;13.15;;;5.20;48.60;;;;;;5077938;28;20036;-77
2022/03/25 00:24:00;;;;;;;29.45;13.43;;;5.10;48.80;;;;;;5074431;28;20134;-78
2022/03/25 00:26:26;;;;;;;35.47;14.32;;;5.10;48.90;;;;;;5078574;28;20032;-78
2022/03/25 00:28:52;;;;;;;27.25;13.73;;;5.10;49.20;;;;;;5074049;28;20021;-78
2022/03/25 00:31:18;;;;;;;31.20;14.85;;;5.00;49.30;;;;;;5073883;28;20020;-78
2022/03/25 00:33:46;;;;;;;32.15;15.40;;;5.00;49.60;;;;;;5073897;28;20039;-78
2022/03/25 00:36:12;;;;;;;36.33;13.35;;;5.00;49.50;;;;;;5073736;28;20374;-77
2022/03/25 00:38:38;;;;;;;42.97;13.15;;;5.00;49.60;;;;;;5073753;28;20028;-78
2022/03/25 00:41:07;;;;;;;25.88;13.40;;;5.00;49.70;;;;;;5073725;28;20028;-78
2022/03/25 00:43:36;;;;;;;28.75;13.65;;;4.90;49.70;;;;;;5084645;28;20031;-77
2022/03/25 00:46:02;;;;;;;26.92;13.27;;;5.00;49.80;;;;;;5093882;28;20469;-77
2022/03/25 00:48:28;;;;;;;25.50;12.63;;;4.90;49.80;;;;;;5093912;28;20039;-78
2022/03/25 00:50:54;;;;;;;27.48;12.10;;;4.90;49.70;;;;;;5093506;28;20430;-79
2022/03/25 00:53:20;;;;;;;26.67;12.90;;;4.80;49.70;;;;;;5092695;28;20024;-77
2022/03/25 00:55:45;;;;;;;23.38;11.98;;;4.90;49.70;;;;;;5093745;28;20032;-78
2022/03/25 00:58:11;;;;;;;24.23;12.10;;;4.90;49.80;;;;;;5093599;28;20031;-77
2022/03/25 01:00:37;;;;;;;29.17;12.07;;;4.80;49.70;;;;;;5073809;28;20078;-75
2022/03/25 01:03:03;;;;;;;23.63;11.65;;;4.80;49.60;;;;;;5073297;28;20099;-77
2022/03/25 01:05:30;;;;;;;31.33;12.93;;;4.80;49.60;;;;;;5073228;28;20473;-76
2022/03/25 01:07:55;;;;;;;16.98;11.20;;;4.80;49.50;;;;;;5073106;28;20031;-76
2022/03/25 01:10:23;;;;;;;23.17;11.80;;;4.80;49.60;;;;;;5073131;28;20024;-76
2022/03/25 01:12:49;;;;;;;;;;;4.70;49.50;;;;;;5055405;28;20054;-77
2022/03/25 01:15:15;;;;;;;21.25;11.77;;;4.70;49.20;;;;;;5055282;28;19920;-76
2022/03/25 01:17:40;;;;;;;27.55;11.85;;;4.70;49.40;;;;;;5085648;28;20032;-76
2022/03/25 01:20:09;;;;;;;18.70;10.93;;;4.60;49.60;;;;;;5093216;28;20036;-77
2022/03/25 01:22:35;;;;;;;30.70;12.32;;;4.70;49.70;;;;;;5093358;28;20113;-77
2022/03/25 01:25:01;;;;;;;25.60;12.98;;;4.70;49.60;;;;;;5093166;28;20028;-76
2022/03/25 01:27:27;;;;;;;24.05;12.80;;;4.70;49.60;;;;;;5093883;28;20035;-75
2022/03/25 01:29:53;;;;;;;21.52;11.70;;;4.60;49.70;;;;;;5093711;28;20028;-76
2022/03/25 01:32:18;;;;;;;19.20;10.90;;;4.60;49.80;;;;;;5092828;28;20019;-77
2022/03/25 01:34:44;;;;;;;18.10;11.00;;;4.60;49.80;;;;;;5078748;28;20492;-78
2022/03/25 01:37:11;;;;;;;23.90;12.48;;;4.70;49.90;;;;;;5072589;28;20028;-78
2022/03/25 01:39:37;;;;;;;34.00;11.93;;;4.70;49.90;;;;;;5054910;28;20024;-78
2022/03/25 01:42:03;;;;;;;17.95;11.30;;;4.70;50.00;;;;;;5072729;28;20037;-77
2022/03/25 01:44:30;;;;;;;24.75;13.20;;;4.60;50.00;;;;;;5072407;28;20024;-78
2022/03/25 01:46:58;;;;;;;22.40;13.07;;;4.70;50.10;;;;;;5054384;28;20781;-77
2022/03/25 01:49:25;;;;;;;19.73;10.38;;;4.60;50.10;;;;;;5072496;28;20432;-77
2022/03/25 01:51:54;;;;;;;18.52;12.27;;;4.60;50.20;;;;;;5081017;28;20043;-78
2022/03/25 01:54:26;;;;;;;24.85;11.82;;;4.60;50.30;;;;;;5092398;28;20019;-79
2022/03/25 01:56:58;;;;;;;17.95;11.43;;;4.60;50.40;;;;;;5092349;28;20480;-78
2022/03/25 01:59:24;;;;;;;15.50;11.73;;;4.70;50.30;;;;;;5092442;28;20024;-77
2022/03/25 02:01:50;;;;;;;25.42;11.38;;;4.60;50.30;;;;;;5092358;28;20036;-76
2022/03/25 02:04:17;;;;;;;28.17;12.25;;;4.60;50.50;;;;;;5074301;28;20123;-77
2022/03/25 02:06:44;;;;;;;21.73;11.53;;;4.60;50.60;;;;;;5092570;28;20028;-77
2022/03/25 02:09:10;;;;;;;19.13;11.77;;;4.60;50.90;;;;;;5085654;28;20104;-78
2022/03/25 02:11:35;;;;;;;19.45;11.90;;;4.60;51.10;;;;;;5073147;28;20389;-77
2022/03/25 02:14:02;;;;;;;20.50;11.68;;;4.70;51.20;;;;;;5072530;28;20120;-78
2022/03/25 02:16:53;;;;;;;21.75;11.90;;;4.70;50.90;;;;;;5053991;28;20044;-78
2022/03/25 02:19:19;;;;;;;27.08;12.50;;;4.70;50.80;;;;;;5071919;28;20028;-78
2022/03/25 02:21:49;;;;;;;22.85;11.15;;;4.70;50.60;;;;;;5086757;28;20047;-79
2022/03/25 02:24:15;;;;;;;25.40;11.98;;;4.70;50.70;;;;;;5093048;28;20104;-78
2022/03/25 02:26:42;;;;;;;20.65;11.25;;;4.70;50.80;;;;;;5073117;28;20485;-78
2022/03/25 02:29:11;;;;;;;23.88;12.07;;;4.60;50.90;;;;;;5092554;28;20030;-79
2022/03/25 02:31:37;;;;;;;19.50;11.43;;;4.60;51.00;;;;;;5092104;28;20477;-80
2022/03/25 02:34:05;;;;;;;21.38;12.40;;;4.50;51.20;;;;;;5092252;28;20077;-77
2022/03/25 02:36:42;;;;;;;24.73;12.65;;;4.50;51.30;;;;;;5092393;28;20063;-79
2022/03/25 02:39:10;;;;;;;20.88;11.25;;;4.50;51.50;;;;;;5092280;28;20431;-78
2022/03/25 02:41:36;;;;;;;20.40;11.95;;;4.40;51.50;;;;;;5088729;28;20485;-78
2022/03/25 02:44:02;;;;;;;24.80;12.85;;;4.40;51.80;;;;;;5074106;28;20169;-78
2022/03/25 02:46:28;;;;;;;21.75;13.18;;;4.40;52.10;;;;;;5054758;28;20050;-77
2022/03/25 02:48:54;;;;;;;17.15;10.95;;;4.30;52.10;;;;;;5071685;28;20024;-79
2022/03/25 02:51:20;;;;;;;23.05;12.05;;;4.30;52.30;;;;;;5071802;28;20409;-78
2022/03/25 02:53:46;;;;;;;33.88;13.63;;;4.30;52.30;;;;;;5053585;28;20054;-78
2022/03/25 02:56:12;;;;;;;21.67;11.48;;;4.30;52.50;;;;;;5072938;28;20028;-79
2022/03/25 02:58:38;;;;;;;18.90;11.60;;;4.20;52.60;;;;;;5090807;28;20104;-78
2022/03/25 03:01:05;;;;;;;23.58;11.65;;;4.20;52.70;;;;;;5092032;28;20643;-77
2022/03/25 03:03:30;;;;;;;21.42;11.57;;;4.20;52.70;;;;;;5091806;28;20020;-77
2022/03/25 03:05:56;;;;;;;19.35;12.23;;;4.20;52.70;;;;;;5091594;28;20024;-78
2022/03/25 03:08:22;;;;;;;26.63;11.65;;;4.20;53.40;;;;;;5091608;28;20020;-78
2022/03/25 03:10:48;;;;;;;17.63;11.38;;;4.20;52.80;;;;;;5091689;28;20389;-79
2022/03/25 03:13:14;;;;;;;22.20;12.55;;;4.30;53.40;;;;;;5090317;28;20040;-80
2022/03/25 03:15:40;;;;;;;20.65;11.02;;;4.30;52.70;;;;;;5081835;28;20036;-78
2022/03/25 03:18:06;;;;;;;22.00;12.45;;;4.30;52.80;;;;;;5095097;28;20052;-78
2022/03/25 03:20:32;;;;;;;17.27;11.95;;;4.30;52.90;;;;;;5088129;28;20024;-78
2022/03/25 03:22:58;;;;;;;24.73;11.88;;;4.40;52.90;;;;;;5096888;28;20038;-78
2022/03/25 03:25:26;;;;;;;20.05;11.95;;;4.40;53.00;;;;;;5110369;28;20026;-78
2022/03/25 03:27:52;;;;;;;22.80;11.48;;;4.40;53.10;;;;;;5116017;28;20110;-76
2022/03/25 03:30:19;;;;;;;22.70;12.00;;;4.40;52.90;;;;;;5112620;28;20020;-77
2022/03/25 03:32:45;;;;;;;20.23;12.27;;;4.40;52.80;;;;;;5075029;28;20082;-77
2022/03/25 03:35:11;;;;;;;21.33;10.95;;;4.50;53.00;;;;;;5056944;28;20519;-77
2022/03/25 03:37:41;;;;;;;17.77;10.27;;;4.50;53.00;;;;;;5056864;28;20135;-78
2022/03/25 03:40:09;;;;;;;19.77;13.57;;;4.50;52.90;;;;;;5074539;28;20029;-79
2022/03/25 03:42:35;;;;;;;18.95;11.40;;;4.50;52.80;;;;;;5056607;28;20148;-78
2022/03/25 03:45:02;;;;;;;24.45;12.10;;;4.50;52.80;;;;;;5074701;28;20024;-77
2022/03/25 03:47:27;;;;;;;21.85;12.02;;;4.60;52.80;;;;;;5072088;28;20032;-78
2022/03/25 03:49:53;;;;;;;23.13;11.90;;;4.60;52.80;;;;;;5095013;28;20016;-78
2022/03/25 03:52:19;;;;;;;18.10;11.30;;;4.60;52.80;;;;;;5094932;28;20027;-77
2022/03/25 03:54:45;;;;;;;18.75;11.85;;;4.70;52.90;;;;;;5094658;28;20031;-79
2022/03/25 03:57:11;;;;;;;22.92;12.52;;;4.70;53.00;;;;;;5094799;28;20540;-78
2022/03/25 03:59:37;;;;;;;19.75;12.07;;;4.80;53.10;;;;;;5094842;28;20087;-78
2022/03/25 04:02:03;;;;;;;26.05;11.68;;;4.80;53.00;;;;;;5093590;28;20028;-77
2022/03/25 04:04:29;;;;;;;20.98;11.02;;;4.90;52.90;;;;;;5094851;28;20441;-78
2022/03/25 04:06:55;;;;;;;19.67;12.48;;;4.90;52.90;;;;;;5078877;28;20028;-78
2022/03/25 04:09:20;;;;;;;19.13;12.95;;;4.80;52.90;;;;;;5098996;28;20032;-77
2022/03/25 04:11:46;;;;;;;22.77;12.35;;;4.90;53.00;;;;;;5087856;28;20059;-76
2022/03/25 04:14:17;;;;;;;24.88;12.05;;;4.90;53.00;;;;;;5096021;28;20031;-77
2022/03/25 04:16:43;;;;;;;26.05;13.50;;;4.90;53.00;;;;;;5076879;28;20094;-78
2022/03/25 04:19:09;;;;;;;26.30;13.20;;;5.00;53.00;;;;;;5077504;28;20501;-78
2022/03/25 04:21:35;;;;;;;22.98;14.18;;;5.10;52.80;;;;;;5092290;28;20110;-77
2022/03/25 04:24:01;;;;;;;23.92;13.40;;;5.10;52.80;;;;;;5094619;28;20020;-79
2022/03/25 04:26:26;;;;;;;20.23;12.88;;;5.10;52.70;;;;;;5076377;28;20024;-78
2022/03/25 04:28:52;;;;;;;24.75;13.98;;;5.10;52.80;;;;;;5094972;28;20496;-79
2022/03/25 04:31:18;;;;;;;25.02;13.40;;;5.00;52.90;;;;;;5094504;28;20028;-78
2022/03/25 04:33:43;;;;;;;22.67;14.32;;;5.00;53.00;;;;;;5093853;28;20034;-78
2022/03/25 04:36:10;;;;;;;20.25;13.55;;;5.00;53.10;;;;;;5075881;28;20024;-78
2022/03/25 04:38:35;;;;;;;20.88;13.30;;;5.00;53.10;;;;;;5094071;28;20469;-77
2022/03/25 04:41:01;;;;;;;25.65;14.05;;;5.00;53.10;;;;;;5094058;28;20040;-79
2022/03/25 04:43:27;;;;;;;26.65;14.32;;;5.00;53.20;;;;;;5093930;28;20012;-77
2022/03/25 04:45:53;;;;;;;23.65;13.57;;;5.10;53.20;;;;;;5081508;28;20032;-76
2022/03/25 04:48:18;;;;;;;23.42;13.50;;;5.20;53.10;;;;;;5077710;28;20020;-79
2022/03/25 04:50:44;;;;;;;31.02;14.43;;;5.20;53.00;;;;;;5081078;28;20469;-78
2022/03/25 04:53:10;;;;;;;29.85;14.20;;;5.20;52.90;;;;;;5073842;28;20432;-80
2022/03/25 04:55:36;;;;;;;20.73;14.95;;;5.20;53.00;;;;;;5069806;28;20365;-80
2022/03/25 04:58:02;;;;;;;28.33;15.38;;;5.20;53.00;;;;;;5093745;28;20076;-80
2022/03/25 05:00:28;;;;;;;25.42;15.00;;;5.30;53.00;;;;;;5093591;28;20031;-80
2022/03/25 05:02:53;;;;;;;26.42;14.15;;;5.20;53.00;;;;;;5075484;28;20024;-78
2022/03/25 05:05:19;;;;;;;23.15;14.25;;;5.20;53.00;;;;;;5093809;28;20024;-80
2022/03/25 05:07:47;;;;;;;27.48;13.70;;;5.30;53.00;;;;;;5092649;28;20024;-78
2022/03/25 05:10:13;;;;;;;;;;;5.30;53.00;;;;;;5093810;28;20021;-78
2022/03/25 05:12:40;;;;;;;24.00;14.20;;;5.40;52.80;;;;;;5093432;28;19994;-78
2022/03/25 05:15:06;;;;;;;31.42;15.02;;;5.40;52.70;;;;;;5093025;28;20728;-78
2022/03/25 05:17:32;;;;;;;24.05;14.30;;;5.50;52.80;;;;;;5093914;28;20038;-78
2022/03/25 05:19:58;;;;;;;28.98;15.38;;;5.60;52.70;;;;;;5088231;28;20095;-78
2022/03/25 05:22:25;;;;;;;26.83;15.15;;;5.60;52.60;;;;;;5072790;28;20540;-79
2022/03/25 05:24:51;;;;;;;25.77;13.68;;;5.70;52.50;;;;;;5054517;28;20025;-78
2022/03/25 05:27:17;;;;;;;26.13;14.45;;;5.70;52.40;;;;;;5072767;28;20490;-77
2022/03/25 05:29:42;;;;;;;41.90;16.63;;;5.80;52.40;;;;;;5073402;28;20021;-79
2022/03/25 05:32:09;;;;;;;26.77;16.48;;;5.80;52.30;;;;;;5073080;28;20043;-79
2022/03/25 05:34:35;;;;;;;28.38;16.38;;;5.90;52.20;;;;;;5073305;28;20339;-78
2022/03/25 05:37:01;;;;;;;26.83;15.43;;;5.90;52.10;;;;;;5073134;28;20029;-79
2022/03/25 05:39:27;;;;;;;30.90;15.40;;;6.00;52.10;;;;;;5091923;28;20028;-80
2022/03/25 05:41:53;;;;;;;26.55;15.43;;;5.90;52.10;;;;;;5093144;28;20093;-81
2022/03/25 05:44:22;;;;;;;29.83;17.02;;;5.90;52.70;;;;;;5095954;28;20357;-80
2022/03/25 05:46:48;;;;;;;34.65;17.10;;;6.00;52.10;;;;;;5072703;28;20127;-78
2022/03/25 05:49:13;;;;;;;25.23;15.73;;;6.00;52.10;;;;;;5072734;28;20446;-82
2022/03/25 05:51:39;;;;;;;27.85;16.58;;;6.10;52.20;;;;;;5072993;28;20052;-76
2022/03/25 05:54:05;;;;;;;25.25;15.23;;;6.20;52.10;;;;;;5072813;28;20024;-79
2022/03/25 05:56:31;;;;;;;34.67;16.17;;;6.20;52.00;;;;;;5072380;28;20110;-78
2022/03/25 05:58:57;;;;;;;34.20;16.35;;;6.30;52.00;;;;;;5066955;28;20394;-77
2022/03/25 06:01:23;;;;;;;29.50;16.30;;;6.30;51.90;;;;;;5092631;28;20027;-81
2022/03/25 06:03:49;;;;;;;26.00;15.75;;;6.30;51.80;;;;;;5092530;28;20077;-80
2022/03/25 06:06:15;;;;;;;32.92;16.85;;;6.40;51.80;;;;;;5092460;28;20039;-79
2022/03/25 06:08:40;;;;;;;40.17;17.15;;;6.40;51.70;;;;;;5092470;28;20028;-78
2022/03/25 06:11:06;;;;;;;25.77;16.33;;;6.50;51.60;;;;;;5092250;28;20354;-79
2022/03/25 06:13:32;;;;;;;30.55;18.40;;;6.60;51.50;;;;;;5092484;28;20028;-80
2022/03/25 06:15:57;;;;;;;37.10;17.27;;;6.70;51.30;;;;;;5079801;28;20052;-80
2022/03/25 06:18:23;;;;;;;29.48;16.35;;;6.80;51.20;;;;;;5084667;28;20115;-80
2022/03/25 06:20:49;;;;;;;25.58;16.58;;;6.90;51.00;;;;;;5092307;28;20462;-81
2022/03/25 06:23:15;;;;;;;27.33;16.20;;;7.00;51.50;;;;;;5092116;28;20027;-79
2022/03/25 06:25:41;;;;;;;32.75;18.33;;;7.10;50.80;;;;;;5092214;28;20020;-79
2022/03/25 06:28:07;;;;;;;43.92;19.48;;;7.20;50.50;;;;;;5074013;28;20024;-78
2022/03/25 06:30:36;;;;;;;35.13;18.05;;;7.30;50.30;;;;;;5073867;28;20020;-80
2022/03/25 06:33:09;;;;;;;39.78;18.33;;;7.50;50.20;;;;;;5060949;28;20064;-79
2022/03/25 06:35:36;;;;;;;34.40;18.17;;;7.60;49.90;;;;;;5071936;28;20360;-80
2022/03/25 06:38:02;;;;;;;41.80;19.87;;;7.60;49.70;;;;;;5084457;28;20033;-79
2022/03/25 06:40:28;;;;;;;36.20;18.38;;;7.70;49.50;;;;;;5091280;28;20024;-80
2022/03/25 06:42:56;;;;;;;34.13;18.95;;;7.80;49.40;;;;;;5091252;28;20017;-80
2022/03/25 06:45:23;;;;;;;36.40;19.60;;;7.90;49.30;;;;;;5091719;28;20028;-79
2022/03/25 06:47:49;;;;;;;35.08;19.92;;;8.00;49.10;;;;;;5091865;28;20039;-77
2022/03/25 06:50:17;;;;;;;40.45;19.50;;;8.10;49.00;;;;;;5064865;28;20033;-78
2022/03/25 06:52:44;;;;;;;43.50;20.95;;;8.20;48.80;;;;;;5079654;28;20536;-78
2022/03/25 06:55:10;;;;;;;46.37;21.07;;;8.30;48.60;;;;;;5081819;28;20028;-76
2022/03/25 06:57:36;;;;;;;35.88;20.65;;;8.40;48.50;;;;;;5091236;28;20458;-78
2022/03/25 07:00:03;;;;;;;42.47;21.58;;;8.50;48.20;;;;;;5091438;28;20082;-78
2022/03/25 07:02:30;;;;;;;43.67;21.20;;;8.60;48.20;;;;;;5091501;28;20043;-78
2022/03/25 07:04:56;;;;;;;45.70;20.95;;;8.70;47.90;;;;;;5081476;28;20033;-78
2022/03/25 07:07:26;;;;;;;47.67;21.20;;;8.70;47.90;;;;;;5072306;28;20048;-78
2022/03/25 07:09:53;;;;;;;45.45;21.98;;;8.70;47.80;;;;;;5071230;28;20031;-76
2022/03/25 07:12:19;;;;;;;44.20;21.13;;;8.80;47.70;;;;;;5053092;28;20373;-80
2022/03/25 07:14:45;;;;;;;41.55;20.77;;;8.80;47.40;;;;;;5071082;28;20021;-77
2022/03/25 07:17:10;;;;;;;38.30;20.45;;;8.70;47.50;;;;;;5062640;28;20036;-77
2022/03/25 07:19:36;;;;;;;39.63;20.88;;;8.60;47.80;;;;;;5070783;28;22550;-79
2022/03/25 07:22:02;;;;;;;41.08;22.33;;;8.70;47.90;;;;;;5070923;28;20462;-78
2022/03/25 07:24:28;;;;;;;41.75;22.45;;;8.80;47.60;;;;;;5071746;28;20108;-76
2022/03/25 07:26:54;;;;;;;39.20;21.60;;;8.80;47.40;;;;;;5071300;28;20044;-78
2022/03/25 07:29:20;;;;;;;48.25;22.58;;;8.80;47.60;;;;;;5070766;28;20071;-79
2022/03/25 07:31:45;;;;;;;49.95;21.77;;;8.90;47.40;;;;;;5071105;28;20036;-78
2022/03/25 07:34:11;;;;;;;45.60;22.23;;;8.90;47.30;;;;;;5071093;28;20086;-75
2022/03/25 07:36:37;;;;;;;41.67;20.67;;;8.90;47.20;;;;;;5070693;28;20363;-78
2022/03/25 07:39:03;;;;;;;42.03;21.60;;;8.90;47.30;;;;;;5071403;28;20033;-77
2022/03/25 07:41:29;;;;;;;39.17;21.83;;;8.90;47.80;;;;;;5070842;28;20037;-78
2022/03/25 07:43:55;;;;;;;49.22;22.25;;;8.90;47.10;;;;;;5071207;28;20021;-78
2022/03/25 07:46:23;;;;;;;51.00;23.30;;;8.80;47.10;;;;;;5071099;28;20025;-78
2022/03/25 07:48:49;;;;;;;50.30;24.90;;;8.80;47.40;;;;;;5071145;28;20347;-78
2022/03/25 07:51:15;;;;;;;43.58;23.70;;;8.90;47.60;;;;;;5057774;28;20378;-78
2022/03/25 07:53:47;;;;;;;46.20;22.52;;;8.90;47.50;;;;;;5084401;28;20110;-79
2022/03/25 07:56:13;;;;;;;42.58;21.70;;;8.90;47.40;;;;;;5052947;28;20115;-77
2022/03/25 07:58:38;;;;;;;49.45;23.40;;;8.90;47.40;;;;;;5052963;28;20174;-77
2022/03/25 08:01:04;;;;;;;52.38;24.25;;;8.90;47.40;;;;;;5071209;28;20033;-79
2022/03/25 08:03:30;;;;;;;46.90;23.85;;;8.90;47.40;;;;;;5073415;28;20028;-77
2022/03/25 08:05:56;;;;;;;42.72;21.48;;;8.80;47.50;;;;;;5074711;28;20106;-78
2022/03/25 08:08:22;;;;;;;43.28;23.30;;;8.80;47.70;;;;;;5056380;28;20427;-78
2022/03/25 08:10:55;;;;;;;48.28;23.33;;;8.90;47.50;;;;;;5055567;28;20031;-79
2022/03/25 08:13:22;;;;;;;38.15;23.02;;;8.90;47.50;;;;;;5055975;28;20111;-78
2022/03/25 08:15:48;;;;;;;38.70;23.90;;;9.00;47.50;;;;;;5086506;28;20047;-80
2022/03/25 08:18:13;;;;;;;54.33;24.48;;;9.00;47.40;;;;;;5094350;28;20020;-79
2022/03/25 08:20:41;;;;;;;42.00;23.05;;;9.10;47.20;;;;;;5094613;28;20185;-80
2022/03/25 08:28:54;;;;;;;40.38;24.52;;;10.70;45.10;;;;;;5093463;28;20035;-78
2022/03/25 08:31:21;;;;;;;42.13;23.85;;;11.60;43.80;;;;;;5093912;28;20031;-78
2022/03/25 08:33:47;;;;;;;49.75;23.67;;;12.50;42.30;;;;;;5094477;28;20074;-78
2022/03/25 08:36:16;;;;;;;44.25;25.05;;;13.30;41.00;;;;;;5094075;28;20081;-77
2022/03/25 08:38:42;;;;;;;41.15;22.15;;;14.00;39.90;;;;;;5094843;28;20016;-79
2022/03/25 08:41:08;;;;;;;39.65;23.40;;;14.50;38.50;;;;;;5095891;28;20503;-79
2022/03/25 08:43:34;;;;;;;36.75;20.50;;;14.70;37.80;;;;;;5086629;28;20416;-79
2022/03/25 08:46:01;;;;;;;34.72;21.92;;;14.70;37.50;;;;;;5074322;28;20025;-78
2022/03/25 08:48:27;;;;;;;44.40;21.25;;;14.70;37.60;;;;;;5073929;28;20371;-80
2022/03/25 08:50:53;;;;;;;30.65;20.15;;;14.70;37.40;;;;;;5075176;28;20036;-78
2022/03/25 08:53:20;;;;;;;29.77;19.27;;;14.40;37.20;;;;;;5094034;28;20020;-78
2022/03/25 08:55:46;;;;;;;34.45;20.60;;;14.10;37.50;;;;;;5093746;28;20051;-80
2022/03/25 08:58:12;;;;;;;32.25;19.90;;;13.40;38.40;;;;;;5093621;28;20028;-79
2022/03/25 09:00:38;;;;;;;44.42;20.75;;;12.90;39.20;;;;;;5092493;28;20187;-77
2022/03/25 09:03:05;;;;;;;39.92;20.75;;;12.80;40.00;;;;;;5093521;28;20028;-79
2022/03/25 09:05:31;;;;;;;35.05;19.90;;;12.90;40.20;;;;;;5075090;28;20193;-80
2022/03/25 09:07:57;;;;;;;36.50;20.30;;;12.80;39.90;;;;;;5093148;28;20067;-78
2022/03/25 09:10:23;;;;;;;38.33;18.30;;;12.60;40.30;;;;;;5093355;28;20016;-77
2022/03/25 09:12:49;;;;;;;30.52;19.88;;;12.30;40.70;;;;;;5093344;28;20020;-79
2022/03/25 09:15:15;;;;;;;33.22;19.58;;;12.10;41.30;;;;;;5086500;28;20497;-78
2022/03/25 09:17:43;;;;;;;30.73;19.88;;;11.70;41.60;;;;;;5073024;28;20020;-78
2022/03/25 09:20:10;;;;;;;29.13;19.02;;;11.40;42.30;;;;;;5072750;28;20029;-79
2022/03/25 09:22:36;;;;;;;28.15;18.92;;;11.20;42.80;;;;;;5072838;28;20434;-76
2022/03/25 09:25:04;;;;;;;26.90;17.33;;;11.00;43.20;;;;;;5072948;28;20481;-79
2022/03/25 09:27:30;;;;;;;28.67;17.17;;;10.90;43.30;;;;;;5054908;28;20029;-78
2022/03/25 09:29:56;;;;;;;27.67;17.13;;;10.90;43.50;;;;;;5072765;28;20024;-79
2022/03/25 09:32:22;;;;;;;28.92;17.17;;;10.80;43.70;;;;;;5079327;28;20032;-81
2022/03/25 09:37:35;;;;;;;27.75;17.42;;;10.50;44.90;;;;;;5092615;28;20173;-77
2022/03/25 09:40:03;;;;;;;30.05;18.55;;;10.50;44.50;;;;;;5092618;28;20118;-77
2022/03/25 09:42:32;;;;;;;26.98;18.63;;;10.60;44.50;;;;;;5092233;28;20085;-78
2022/03/25 09:44:59;;;;;;;35.63;21.27;;;10.60;44.50;;;;;;5092512;28;20017;-79
2022/03/25 09:47:25;;;;;;;27.92;19.48;;;10.70;44.60;;;;;;5092586;28;20038;-78
2022/03/25 09:49:52;;;;;;;37.35;19.70;;;10.80;44.40;;;;;;5081363;28;20834;-78
2022/03/25 09:52:18;;;;;;;31.52;19.73;;;10.90;44.80;;;;;;5085978;28;20024;-78
2022/03/25 09:54:44;;;;;;;30.17;18.63;;;11.00;44.10;;;;;;5092519;28;20047;-80
2022/03/25 09:57:10;;;;;;;27.30;19.73;;;11.20;43.90;;;;;;5092567;28;20028;-79
2022/03/25 09:59:36;;;;;;;34.28;21.10;;;11.10;43.90;;;;;;5074774;28;20146;-79
2022/03/25 10:02:02;;;;;;;27.23;17.77;;;11.10;43.90;;;;;;5092835;28;20111;-77
2022/03/25 10:04:48;;;;;;;35.15;18.90;;;11.40;44.10;;;;;;5073157;28;20047;-77
2022/03/25 10:07:25;;;;;;;22.08;16.05;;;11.60;43.30;;;;;;5072067;28;20012;-80
2022/03/25 10:10:11;;;;;;;29.60;18.25;;;11.80;42.90;;;;;;5053954;28;20477;-79
2022/03/25 10:12:38;;;;;;;30.40;19.17;;;11.80;42.90;;;;;;5079313;28;20031;-79
2022/03/25 10:15:14;;;;;;;25.77;18.80;;;11.60;42.80;;;;;;5091919;28;20409;-78
2022/03/25 10:18:04;;;;;;;26.95;18.25;;;11.60;43.00;;;;;;5092127;28;20050;-79
2022/03/25 10:20:35;;;;;;;34.13;19.60;;;11.40;43.40;;;;;;5073790;28;20123;-77
2022/03/25 10:23:12;;;;;;;24.77;18.13;;;11.40;43.60;;;;;;5073161;28;20044;-79
2022/03/25 10:25:48;;;;;;;34.78;19.73;;;11.40;43.30;;;;;;5071746;28;20032;-79
2022/03/25 10:28:36;;;;;;;31.50;18.02;;;11.40;43.40;;;;;;5071611;28;20060;-77
2022/03/25 10:31:14;;;;;;;35.20;20.42;;;11.60;43.40;;;;;;5071902;28;20013;-77
2022/03/25 10:33:49;;;;;;;22.02;18.25;;;11.70;43.60;;;;;;5071838;28;20027;-78
2022/03/25 10:36:20;;;;;;;28.45;18.98;;;11.70;43.10;;;;;;5071697;28;20024;-79
2022/03/25 10:38:50;;;;;;;26.30;20.00;;;11.70;43.20;;;;;;5072007;28;20024;-78
2022/03/25 10:41:22;;;;;;;28.73;19.23;;;11.80;43.20;;;;;;5072816;28;20366;-77
2022/03/25 10:44:03;;;;;;;33.70;20.30;;;11.80;42.90;;;;;;5091956;28;20024;-79
2022/03/25 10:46:36;;;;;;;29.00;19.52;;;11.70;43.10;;;;;;5091700;28;20020;-81
2022/03/25 10:49:05;;;;;;;25.90;18.55;;;11.60;43.40;;;;;;5091685;28;20475;-77
2022/03/25 10:51:33;;;;;;;26.30;18.60;;;11.70;43.30;;;;;;5091428;28;20024;-79
2022/03/25 10:54:02;;;;;;;27.10;18.30;;;11.60;43.40;;;;;;5073481;28;20089;-77
2022/03/25 10:56:30;;;;;;;36.13;19.75;;;11.60;43.60;;;;;;5086085;28;20030;-78
2022/03/25 10:58:57;;;;;;;30.55;18.95;;;11.70;43.60;;;;;;5071150;28;20028;-77
2022/03/25 11:01:23;;;;;;;;;;;11.60;43.70;;;;;;5053885;28;20111;-77
2022/03/25 11:03:54;;;;;;;29.55;18.67;;;11.70;43.70;;;;;;5071069;28;19999;-79
2022/03/25 11:06:20;;;;;;;33.17;18.42;;;11.70;43.80;;;;;;5071735;28;20020;-80
2022/03/25 11:08:47;;;;;;;26.33;19.27;;;11.70;44.00;;;;;;5071245;28;20497;-78
2022/03/25 11:11:16;;;;;;;36.65;19.70;;;11.70;44.00;;;;;;5074044;28;20043;-78
2022/03/25 11:13:47;;;;;;;28.75;18.23;;;11.90;43.80;;;;;;5072617;28;20484;-80
2022/03/25 11:16:22;;;;;;;25.40;19.05;;;12.00;43.80;;;;;;5091882;28;20119;-78
2022/03/25 11:18:49;;;;;;;30.27;19.83;;;12.00;43.50;;;;;;5091941;28;20112;-78
2022/03/25 11:21:15;;;;;;;29.13;17.58;;;11.90;43.60;;;;;;5091534;28;20028;-77
2022/03/25 11:23:49;;;;;;;27.10;18.10;;;11.90;43.90;;;;;;5091792;28;20445;-78
2022/03/25 11:26:19;;;;;;;27.27;17.73;;;11.70;44.00;;;;;;5091356;28;20020;-79
2022/03/25 11:28:50;;;;;;;32.50;18.30;;;11.60;44.40;;;;;;5076064;28;20039;-77
2022/03/25 11:31:16;;;;;;;30.40;19.92;;;11.60;44.40;;;;;;5071164;28;20032;-77
2022/03/25 11:34:05;;;;;;;39.83;19.80;;;11.70;44.30;;;;;;5071414;28;20039;-77
2022/03/25 11:36:31;;;;;;;24.58;17.83;;;11.90;44.30;;;;;;5071353;28;20063;-78
2022/03/25 11:39:18;;;;;;;30.23;17.60;;;12.10;44.50;;;;;;5074224;28;20056;-78
2022/03/25 11:41:44;;;;;;;32.58;18.65;;;12.00;43.90;;;;;;5074865;28;20108;-78
2022/03/25 11:44:16;;;;;;;25.27;16.92;;;11.90;44.10;;;;;;5075203;28;20059;-78
2022/03/25 11:47:00;;;;;;;24.45;18.02;;;12.00;44.10;;;;;;5089169;28;20036;-77
2022/03/25 11:49:31;;;;;;;29.27;17.70;;;12.10;44.10;;;;;;5094803;28;20020;-79
2022/03/25 11:51:57;;;;;;;23.42;18.23;;;12.30;43.90;;;;;;5094864;28;20032;-79
2022/03/25 11:54:37;;;;;;;35.42;17.35;;;12.20;44.10;;;;;;5095037;28;20028;-79
2022/03/25 11:57:21;;;;;;;27.20;15.68;;;12.30;43.80;;;;;;5094865;28;20133;-79
2022/03/25 11:59:52;;;;;;;23.83;16.60;;;12.10;44.00;;;;;;5094633;28;20024;-79
2022/03/25 12:02:32;;;;;;;22.60;15.35;;;11.80;44.50;;;;;;5082385;28;20131;-80
2022/03/25 12:04:59;;;;;;;21.05;14.07;;;11.50;45.00;;;;;;5074213;28;20112;-77
2022/03/25 12:07:25;;;;;;;25.95;14.70;;;11.30;45.50;;;;;;5074298;28;20024;-78
2022/03/25 12:09:51;;;;;;;30.50;17.58;;;11.20;46.10;;;;;;5059982;28;20024;-79
2022/03/25 12:12:17;;;;;;;19.75;14.50;;;11.10;46.80;;;;;;5094400;28;20354;-78
2022/03/25 12:15:06;;;;;;;25.98;16.15;;;11.10;46.30;;;;;;5094122;28;20078;-79
2022/03/25 12:17:31;;;;;;;23.45;15.45;;;11.20;46.50;;;;;;5094031;28;20024;-78
2022/03/25 12:19:59;;;;;;;24.52;17.08;;;11.10;46.60;;;;;;5093855;28;20028;-79
2022/03/25 12:22:27;;;;;;;27.90;16.15;;;11.00;46.80;;;;;;5094130;28;20051;-79
2022/03/25 12:24:53;;;;;;;;;;;11.00;46.80;;;;;;5094633;28;20042;-79
2022/03/25 12:27:21;;;;;;;26.60;17.73;;;11.10;46.50;;;;;;5094367;28;19908;-81
2022/03/25 12:29:50;;;;;;;29.90;18.95;;;11.00;46.90;;;;;;5094369;28;20028;-79
2022/03/25 12:32:18;;;;;;;27.45;18.27;;;10.90;47.00;;;;;;5094023;28;20073;-79
2022/03/25 12:34:59;;;;;;;32.75;18.30;;;11.00;47.30;;;;;;5074598;28;20023;-79
2022/03/25 12:37:29;;;;;;;36.30;18.58;;;11.00;47.20;;;;;;5075833;28;20043;-79
2022/03/25 12:39:55;;;;;;;30.95;19.05;;;10.80;47.10;;;;;;5094206;28;20024;-78
2022/03/25 12:42:21;;;;;;;35.60;18.77;;;10.80;47.10;;;;;;5093759;28;20101;-78
2022/03/25 12:44:53;;;;;;;31.80;16.73;;;10.80;47.30;;;;;;5093870;28;20419;-77
2022/03/25 12:47:32;;;;;;;21.20;14.88;;;10.80;47.30;;;;;;5093699;28;20032;-78